Wendell, Idaho
Current Conditions -  °F | °C
As of 2:53 AM on Monday 22 Dec 2014 (Local Time) from KJER Reporting Station
Overcast Overcast  
Wind Chill: 28°   Ceiling: 700
Heat Index: 36°   Visibility: 10mi
Dew Point: 34°   Wind: 10mph
Humidity: 93%   Direction: 230°SW
Pressure: 30.03"   Gusts: NA
Location:  42.78°N, 114.7°W
Report Text: KJER 220953Z AUTO 23009KT 10SM BKN007 OVC014 02/01 A3003 RMK AO2 CIG 005V009 SLP178 T00220011
Loading
Personal Weather Stations






























Interactive Weather Map New forecast layout! Learn more

10-Day Weather Forecast

Advertisements
Track Severe Weather on mobile